KPHX/PHX METAR and TAF weather

Enter ICAO airport designator
Station Type Date Time Source
KPHX METAR 2019/02/20 16:51 UTC NOAA

KPHX 201651Z 11008KT 10SM FEW250 07/M06 A3002 RMK AO2 SLP163 T00721056


Station Type Date Time Source
KPHX Decoded METAR 2019/02/20 16:51 UTC NOAA

Phoenix, Phoenix Sky Harbor International Airport, AZ, United States (KPHX) 33-26-03N 112-03-04W 336M
Feb 20, 2019 - 11:51 AM EST / 2019.02.20 1651 UTC
Wind: from the ESE (110 degrees) at 9 MPH (8 KT):0
Visibility: 10 mile(s):0
Sky conditions: mostly clear
Temperature: 45.0 F (7.2 C)
Dew Point: 21.9 F (-5.6 C)
Relative Humidity: 39%
Pressure (altimeter): 30.02 in. Hg (1016 hPa)
ob: KPHX 201651Z 11008KT 10SM FEW250 07/M06 A3002 RMK AO2 SLP163 T00721056
cycle: 17

Station Type Date Time Source
KPHX TAF 2019/02/20 18:39 UTC NOAA

TAF KPHX 201736Z 2018/2124 14007KT P6SM FEW250
FM202100 18007KT P6SM FEW160 FEW250
FM202300 21008KT P6SM FEW150 BKN250
FM210300 16010KT P6SM FEW090 BKN120
FM210900 16012G20KT P6SM VCSH FEW040 BKN070
FM211230 19012G20KT P6SM SHRA SCT015 BKN020 OVC040


Example: see airport list